Time,TemperatureF,DewpointF,PressureIn,WindDirection,WindDirectionDegrees,WindSpeedMPH,WindSpeedGustMPH,Humidity,HourlyPrecipIn,Conditions,Clouds,dailyrainin,SolarRadiationWatts/m^2,SoftwareType,DateUTC
2013-06-05 00:02:00,50.0,38.0,30.15,NNE,27,6.0,7.0,63,-99.99,,,-99.99,-0.100000,,2013-06-05 06:02:00,
2013-06-05 00:11:00,49.0,38.0,30.15,NNE,25,6.0,8.0,65,-99.99,,,-99.99,-0.100000,,2013-06-05 06:11:00,
2013-06-05 00:21:00,50.0,38.0,30.15,NNE,28,8.0,9.0,63,-99.99,,,-99.99,-0.100000,,2013-06-05 06:21:00,
2013-06-05 00:32:00,51.0,38.0,30.16,ENE,66,6.0,8.0,59,-99.99,,,-99.99,-0.100000,,2013-06-05 06:32:00,
2013-06-05 00:42:00,51.0,37.0,30.16,NE,46,6.0,7.0,60,-99.99,,,-99.99,0.000000,,2013-06-05 06:42:00,
2013-06-05 00:52:00,48.0,39.0,30.16,ENE,67,4.0,6.0,70,-99.99,,,-99.99,-0.100000,,2013-06-05 06:52:00,
2013-06-05 01:02:00,48.0,40.0,30.16,NE,49,4.0,4.0,73,-99.99,,,-99.99,-0.100000,,2013-06-05 07:02:00,
2013-06-05 01:11:00,48.0,39.0,30.16,NE,56,5.0,7.0,70,-99.99,,,-99.99,-0.100000,,2013-06-05 07:11:00,
2013-06-05 01:21:00,47.0,40.0,30.16,NE,42,6.0,7.0,74,-99.99,,,-99.99,-0.100000,,2013-06-05 07:21:00,
2013-06-05 01:32:00,48.0,39.0,30.16,ENE,58,4.0,5.0,72,-99.99,,,-99.99,-0.300000,,2013-06-05 07:32:00,
2013-06-05 01:41:00,47.0,40.0,30.16,NE,43,4.0,5.0,75,-99.99,,,-99.99,-0.100000,,2013-06-05 07:41:00,
2013-06-05 01:52:00,48.0,39.0,30.16,ENE,70,4.0,5.0,69,-99.99,,,-99.99,-0.100000,,2013-06-05 07:52:00,
2013-06-05 02:02:00,47.0,38.0,30.17,ENE,68,4.0,5.0,70,-99.99,,,-99.99,-0.100000,,2013-06-05 08:02:00,
2013-06-05 02:11:00,47.0,37.0,30.16,ENE,58,3.0,4.0,68,-99.99,,,-99.99,-0.100000,,2013-06-05 08:11:00,
2013-06-05 02:21:00,47.0,37.0,30.17,NE,46,4.0,5.0,65,-99.99,,,-99.99,0.100000,,2013-06-05 08:21:00,
2013-06-05 02:32:00,45.0,38.0,30.17,NNE,32,5.0,6.0,74,-99.99,,,-99.99,0.000000,,2013-06-05 08:32:00,
2013-06-05 02:42:00,46.0,37.0,30.17,ENE,59,5.0,6.0,71,-99.99,,,-99.99,-0.100000,,2013-06-05 08:42:00,
2013-06-05 02:52:00,46.0,37.0,30.17,NE,55,5.0,6.0,70,-99.99,,,-99.99,0.000000,,2013-06-05 08:52:00,
2013-06-05 03:01:00,45.0,37.0,30.17,ENE,59,5.0,7.0,72,-99.99,,,-99.99,0.000000,,2013-06-05 09:01:00,
2013-06-05 03:11:00,45.0,37.0,30.17,NE,56,6.0,8.0,72,-99.99,,,-99.99,-0.100000,,2013-06-05 09:11:00,
2013-06-05 03:21:00,46.0,37.0,30.17,NE,51,8.0,10.0,70,-99.99,,,-99.99,0.000000,,2013-06-05 09:21:00,
2013-06-05 03:32:00,45.0,37.0,30.17,NE,53,7.0,9.0,71,-99.99,,,-99.99,-0.100000,,2013-06-05 09:32:00,
2013-06-05 03:42:00,45.0,37.0,30.17,ENE,66,6.0,7.0,71,-99.99,,,-99.99,-0.100000,,2013-06-05 09:42:00,
2013-06-05 03:52:00,45.0,36.0,30.17,East,80,6.0,8.0,72,-99.99,,,-99.99,0.100000,,2013-06-05 09:52:00,
2013-06-05 04:02:00,44.0,37.0,30.17,East,86,6.0,7.0,73,-99.99,,,-99.99,-0.300000,,2013-06-05 10:02:00,
2013-06-05 04:12:00,44.0,36.0,30.17,ENE,70,7.0,8.0,74,-99.99,,,-99.99,-0.100000,,2013-06-05 10:12:00,
2013-06-05 04:22:00,44.0,36.0,30.17,ENE,74,7.0,8.0,75,-99.99,,,-99.99,0.000000,,2013-06-05 10:22:00,
2013-06-05 04:33:00,43.0,36.0,30.17,ENE,71,7.0,8.0,76,-99.99,,,-99.99,-0.100000,,2013-06-05 10:33:00,
2013-06-05 04:42:00,42.0,36.0,30.17,ENE,78,6.0,8.0,77,-99.99,,,-99.99,-0.100000,,2013-06-05 10:42:00,
2013-06-05 04:52:00,42.0,36.0,30.17,ENE,59,6.0,8.0,79,-99.99,,,-99.99,-0.100000,,2013-06-05 10:52:00,
2013-06-05 05:02:00,42.0,36.0,30.17,ENE,71,5.0,6.0,79,-99.99,,,-99.99,0.000000,,2013-06-05 11:02:00,
2013-06-05 05:21:00,41.0,36.0,30.17,NE,37,6.0,7.0,83,-99.99,,,-99.99,-0.100000,,2013-06-05 11:21:00,
2013-06-05 05:32:00,41.0,36.0,30.17,NE,34,6.0,7.0,81,-99.99,,,-99.99,0.000000,,2013-06-05 11:32:00,
2013-06-05 05:42:00,42.0,36.0,30.18,NE,46,5.0,6.0,80,-99.99,,,-99.99,0.100000,,2013-06-05 11:42:00,
2013-06-05 05:51:00,40.0,36.0,30.18,ENE,59,5.0,7.0,84,-99.99,,,-99.99,0.600000,,2013-06-05 11:51:00,
2013-06-05 06:01:00,42.0,36.0,30.18,ENE,77,4.0,6.0,81,-99.99,,,-99.99,2.500000,,2013-06-05 12:01:00,
2013-06-05 06:11:00,41.0,36.0,30.18,East,92,4.0,6.0,81,-99.99,,,-99.99,6.000000,,2013-06-05 12:11:00,
2013-06-05 06:22:00,41.0,36.0,30.18,East,95,5.0,6.0,81,-99.99,,,-99.99,10.600000,,2013-06-05 12:22:00,
2013-06-05 06:32:00,41.0,36.0,30.18,East,85,5.0,6.0,81,-99.99,,,-99.99,25.100000,,2013-06-05 12:32:00,
2013-06-05 06:43:00,41.0,36.0,30.18,East,87,5.0,8.0,81,-99.99,,,-99.99,51.400002,,2013-06-05 12:43:00,
2013-06-05 06:52:00,40.0,35.0,30.18,ENE,75,6.0,8.0,82,-99.99,,,-99.99,81.400002,,2013-06-05 12:52:00,
2013-06-05 07:02:00,41.0,36.0,30.18,ENE,78,6.0,8.0,83,-99.99,,,-99.99,115.400002,,2013-06-05 13:02:00,
2013-06-05 07:11:00,41.0,36.0,30.19,East,79,5.0,8.0,82,-99.99,,,-99.99,145.399994,,2013-06-05 13:11:00,
2013-06-05 07:21:00,42.0,36.0,30.19,East,84,6.0,8.0,80,-99.99,,,-99.99,173.899994,,2013-06-05 13:21:00,
2013-06-05 07:32:00,42.0,36.0,30.19,ENE,73,5.0,7.0,79,-99.99,,,-99.99,203.899994,,2013-06-05 13:32:00,
2013-06-05 07:42:00,44.0,37.0,30.19,ENE,57,5.0,7.0,77,-99.99,,,-99.99,235.699997,,2013-06-05 13:42:00,
2013-06-05 07:52:00,44.0,37.0,30.19,ENE,59,5.0,7.0,75,-99.99,,,-99.99,267.100006,,2013-06-05 13:52:00,
2013-06-05 08:01:00,45.0,38.0,30.19,ENE,57,5.0,6.0,75,-99.99,,,-99.99,299.700012,,2013-06-05 14:01:00,
2013-06-05 08:11:00,46.0,39.0,30.19,NE,53,5.0,7.0,74,-99.99,,,-99.99,332.500000,,2013-06-05 14:11:00,
2013-06-05 08:22:00,47.0,38.0,30.19,ENE,58,6.0,9.0,69,-99.99,,,-99.99,366.100006,,2013-06-05 14:22:00,
2013-06-05 08:32:00,48.0,38.0,30.19,NE,45,6.0,9.0,67,-99.99,,,-99.99,401.100006,,2013-06-05 14:32:00,
2013-06-05 08:42:00,49.0,39.0,30.19,NE,49,6.0,8.0,67,-99.99,,,-99.99,433.399994,,2013-06-05 14:42:00,
2013-06-05 08:52:00,49.0,39.0,30.19,NE,40,5.0,7.0,66,-99.99,,,-99.99,465.899994,,2013-06-05 14:52:00,
2013-06-05 09:02:00,50.0,39.0,30.19,NE,40,6.0,8.0,65,-99.99,,,-99.99,498.399994,,2013-06-05 15:02:00,
2013-06-05 09:11:00,51.0,40.0,30.19,NNE,25,5.0,7.0,65,-99.99,,,-99.99,530.299988,,2013-06-05 15:11:00,
2013-06-05 09:22:00,52.0,40.0,30.19,NNE,32,4.0,6.0,63,-99.99,,,-99.99,562.599976,,2013-06-05 15:22:00,
2013-06-05 09:33:00,53.0,41.0,30.19,NE,41,5.0,6.0,62,-99.99,,,-99.99,592.900024,,2013-06-05 15:33:00,
2013-06-05 09:42:00,54.0,41.0,30.19,NNE,22,4.0,6.0,60,-99.99,,,-99.99,623.200012,,2013-06-05 15:42:00,
2013-06-05 09:53:00,56.0,42.0,30.19,NNE,27,4.0,6.0,59,-99.99,,,-99.99,653.400024,,2013-06-05 15:53:00,
2013-06-05 10:03:00,57.0,43.0,30.19,NNE,26,4.0,7.0,58,-99.99,,,-99.99,683.400024,,2013-06-05 16:03:00,
2013-06-05 10:12:00,58.0,42.0,30.19,North,9,5.0,7.0,54,-99.99,,,-99.99,712.900024,,2013-06-05 16:12:00,
2013-06-05 10:22:00,59.0,42.0,30.19,North,5,5.0,6.0,53,-99.99,,,-99.99,741.299988,,2013-06-05 16:22:00,
2013-06-05 10:32:00,59.0,41.0,30.19,NE,34,4.0,6.0,50,-99.99,,,-99.99,768.200012,,2013-06-05 16:32:00,
2013-06-05 10:42:00,61.0,42.0,30.18,NNE,23,5.0,7.0,50,-99.99,,,-99.99,792.599976,,2013-06-05 16:42:00,
2013-06-05 10:53:00,62.0,42.0,30.18,North,11,5.0,8.0,48,-99.99,,,-99.99,818.000000,,2013-06-05 16:53:00,
2013-06-05 11:02:00,63.0,42.0,30.18,North,352,5.0,8.0,46,-99.99,,,-99.99,842.000000,,2013-06-05 17:02:00,
2013-06-05 11:12:00,63.0,40.0,30.18,NE,40,4.0,7.0,41,-99.99,,,-99.99,866.000000,,2013-06-05 17:12:00,
2013-06-05 11:22:00,64.0,39.0,30.18,NNE,25,6.0,8.0,39,-99.99,,,-99.99,887.000000,,2013-06-05 17:22:00,
2013-06-05 11:32:00,65.0,40.0,30.18,North,7,6.0,9.0,40,-99.99,,,-99.99,907.000000,,2013-06-05 17:32:00,
2013-06-05 11:42:00,65.0,37.0,30.18,NNE,31,4.0,8.0,35,-99.99,,,-99.99,926.000000,,2013-06-05 17:42:00,
2013-06-05 11:52:00,66.0,35.0,30.18,ENE,70,4.0,7.0,32,-99.99,,,-99.99,945.000000,,2013-06-05 17:52:00,
2013-06-05 12:02:00,67.0,36.0,30.17,North,11,4.0,6.0,32,-99.99,,,-99.99,963.000000,,2013-06-05 18:02:00,
2013-06-05 12:12:00,67.0,38.0,30.17,South,173,3.0,6.0,34,-99.99,,,-99.99,977.000000,,2013-06-05 18:12:00,
2013-06-05 12:21:00,67.0,37.0,30.17,North,11,2.0,3.0,33,-99.99,,,-99.99,990.000000,,2013-06-05 18:21:00,
2013-06-05 12:32:00,68.0,34.0,30.17,ESE,122,3.0,6.0,28,-99.99,,,-99.99,1000.000000,,2013-06-05 18:32:00,
2013-06-05 12:42:00,69.0,38.0,30.16,NNW,347,3.0,5.0,32,-99.99,,,-99.99,1012.000000,,2013-06-05 18:42:00,
2013-06-05 12:52:00,69.0,33.0,30.16,SW,230,9.0,12.0,26,-99.99,,,-99.99,1023.000000,,2013-06-05 18:52:00,
2013-06-05 13:02:00,69.0,35.0,30.16,WSW,239,7.0,9.0,28,-99.99,,,-99.99,1029.000000,,2013-06-05 19:02:00,
2013-06-05 13:11:00,69.0,36.0,30.15,NW,316,4.0,6.0,30,-99.99,,,-99.99,1035.000000,,2013-06-05 19:11:00,
2013-06-05 13:22:00,70.0,34.0,30.15,SW,232,8.0,11.0,26,-99.99,,,-99.99,1041.000000,,2013-06-05 19:22:00,
2013-06-05 13:32:00,70.0,36.0,30.15,WSW,254,6.0,10.0,28,-99.99,,,-99.99,1044.000000,,2013-06-05 19:32:00,
2013-06-05 13:42:00,70.0,36.0,30.15,SSW,195,6.0,14.0,29,-99.99,,,-99.99,1046.000000,,2013-06-05 19:42:00,
2013-06-05 13:52:00,70.0,36.0,30.15,South,179,6.0,10.0,29,-99.99,,,-99.99,1045.000000,,2013-06-05 19:52:00,
2013-06-05 14:02:00,71.0,37.0,30.15,WSW,238,7.0,10.0,29,-99.99,,,-99.99,1042.000000,,2013-06-05 20:02:00,
2013-06-05 14:11:00,71.0,37.0,30.15,SW,233,5.0,9.0,29,-99.99,,,-99.99,1039.000000,,2013-06-05 20:11:00,
2013-06-05 14:22:00,72.0,36.0,30.14,West,261,8.0,14.0,27,-99.99,,,-99.99,1038.000000,,2013-06-05 20:22:00,
2013-06-05 14:32:00,72.0,36.0,30.14,WNW,302,7.0,11.0,27,-99.99,,,-99.99,1031.000000,,2013-06-05 20:32:00,
2013-06-05 14:42:00,71.0,37.0,30.14,WNW,293,8.0,12.0,28,-99.99,,,-99.99,1024.000000,,2013-06-05 20:42:00,
2013-06-05 14:52:00,72.0,36.0,30.14,WSW,242,6.0,10.0,27,-99.99,,,-99.99,1016.000000,,2013-06-05 20:52:00,
2013-06-05 15:02:00,72.0,37.0,30.13,WSW,255,6.0,11.0,27,-99.99,,,-99.99,1005.000000,,2013-06-05 21:02:00,
2013-06-05 15:11:00,72.0,36.0,30.13,SSW,205,6.0,10.0,26,-99.99,,,-99.99,995.000000,,2013-06-05 21:11:00,
2013-06-05 15:21:00,73.0,37.0,30.13,WNW,292,6.0,9.0,27,-99.99,,,-99.99,980.000000,,2013-06-05 21:21:00,
2013-06-05 15:33:00,73.0,37.0,30.12,West,271,4.0,9.0,26,-99.99,,,-99.99,967.000000,,2013-06-05 21:33:00,
2013-06-05 15:43:00,73.0,35.0,30.12,West,270,6.0,10.0,24,-99.99,,,-99.99,951.000000,,2013-06-05 21:43:00,
2013-06-05 15:53:00,74.0,36.0,30.12,WNW,294,6.0,11.0,25,-99.99,,,-99.99,933.000000,,2013-06-05 21:53:00,
2013-06-05 16:02:00,74.0,35.0,30.11,West,261,4.0,9.0,24,-99.99,,,-99.99,916.000000,,2013-06-05 22:02:00,
2013-06-05 16:12:00,74.0,34.0,30.11,SW,236,8.0,11.0,23,-99.99,,,-99.99,894.000000,,2013-06-05 22:12:00,
2013-06-05 16:22:00,74.0,34.0,30.11,SSE,166,4.0,7.0,23,-99.99,,,-99.99,874.000000,,2013-06-05 22:22:00,
2013-06-05 16:32:00,74.0,34.0,30.10,SW,232,7.0,11.0,23,-99.99,,,-99.99,852.000000,,2013-06-05 22:32:00,
2013-06-05 16:42:00,76.0,36.0,30.10,SE,139,9.0,13.0,23,-99.99,,,-99.99,830.000000,,2013-06-05 22:42:00,
2013-06-05 16:52:00,75.0,34.0,30.10,South,188,7.0,13.0,22,-99.99,,,-99.99,808.000000,,2013-06-05 22:52:00,
2013-06-05 17:02:00,74.0,31.0,30.10,South,174,4.0,9.0,20,-99.99,,,-99.99,783.400024,,2013-06-05 23:02:00,
2013-06-05 17:11:00,74.0,32.0,30.09,SW,221,8.0,13.0,21,-99.99,,,-99.99,756.299988,,2013-06-05 23:11:00,
2013-06-05 17:21:00,74.0,31.0,30.09,SSW,206,6.0,10.0,19,-99.99,,,-99.99,731.900024,,2013-06-05 23:21:00,
2013-06-05 17:32:00,75.0,30.0,30.09,SSW,205,8.0,11.0,19,-99.99,,,-99.99,706.599976,,2013-06-05 23:32:00,
2013-06-05 17:41:00,75.0,30.0,30.09,SSW,200,7.0,9.0,18,-99.99,,,-99.99,675.299988,,2013-06-05 23:41:00,
2013-06-05 17:52:00,75.0,27.0,30.08,SSW,195,9.0,11.0,17,-99.99,,,-99.99,643.400024,,2013-06-05 23:52:00,
2013-06-05 18:02:00,75.0,34.0,30.08,SSW,200,9.0,14.0,22,-99.99,,,-99.99,609.900024,,2013-06-06 00:02:00,
2013-06-05 18:11:00,75.0,33.0,30.07,SSW,204,9.0,12.0,21,-99.99,,,-99.99,579.000000,,2013-06-06 00:11:00,
2013-06-05 18:21:00,75.0,34.0,30.07,SSW,204,10.0,12.0,22,-99.99,,,-99.99,547.599976,,2013-06-06 00:21:00,
2013-06-05 18:32:00,75.0,33.0,30.07,SSW,202,9.0,12.0,21,-99.99,,,-99.99,515.900024,,2013-06-06 00:32:00,
2013-06-05 18:42:00,75.0,33.0,30.06,SSW,195,10.0,15.0,21,-99.99,,,-99.99,482.700012,,2013-06-06 00:42:00,
2013-06-05 18:51:00,76.0,33.0,30.06,SSW,192,10.0,14.0,21,-99.99,,,-99.99,449.399994,,2013-06-06 00:51:00,
2013-06-05 19:42:00,74.0,35.0,30.05,SSW,194,10.0,14.0,23,-99.99,,,-99.99,269.700012,,2013-06-06 01:42:00,
2013-06-05 19:52:00,74.0,35.0,30.05,SSW,198,10.0,14.0,23,-99.99,,,-99.99,237.199997,,2013-06-06 01:52:00,
2013-06-05 20:01:00,74.0,36.0,30.05,SSW,200,9.0,13.0,25,-99.99,,,-99.99,202.699997,,2013-06-06 02:01:00,
2013-06-05 20:11:00,74.0,36.0,30.05,SSW,198,8.0,12.0,25,-99.99,,,-99.99,171.100006,,2013-06-06 02:11:00,
2013-06-05 20:21:00,73.0,35.0,30.05,SSW,202,7.0,10.0,25,-99.99,,,-99.99,141.899994,,2013-06-06 02:21:00,
2013-06-05 20:32:00,72.0,35.0,30.05,SSW,199,8.0,11.0,25,-99.99,,,-99.99,114.199997,,2013-06-06 02:32:00,
2013-06-05 20:42:00,72.0,35.0,30.05,SSW,199,8.0,11.0,25,-99.99,,,-99.99,114.199997,,2013-06-06 02:42:00,
2013-06-05 20:51:00,72.0,35.0,30.05,SSW,199,8.0,11.0,25,-99.99,,,-99.99,114.199997,,2013-06-06 02:51:00,
2013-06-05 21:02:00,71.0,36.0,30.05,South,176,6.0,8.0,27,-99.99,,,-99.99,18.100000,,2013-06-06 03:02:00,
2013-06-05 21:11:00,70.0,36.0,30.05,South,176,7.0,9.0,28,-99.99,,,-99.99,12.200000,,2013-06-06 03:11:00,
2013-06-05 21:22:00,69.0,34.0,30.05,South,191,6.0,9.0,27,-99.99,,,-99.99,6.700000,,2013-06-06 03:22:00,
2013-06-05 21:33:00,69.0,34.0,30.05,SSW,193,7.0,9.0,26,-99.99,,,-99.99,2.000000,,2013-06-06 03:33:00,
2013-06-05 21:43:00,69.0,33.0,30.05,South,186,6.0,9.0,27,-99.99,,,-99.99,0.400000,,2013-06-06 03:43:00,
2013-06-05 21:52:00,68.0,33.0,30.05,South,188,6.0,9.0,27,-99.99,,,-99.99,0.000000,,2013-06-06 03:52:00,
2013-06-05 22:02:00,67.0,33.0,30.06,South,183,6.0,8.0,28,-99.99,,,-99.99,-0.100000,,2013-06-06 04:02:00,
2013-06-05 22:13:00,65.0,34.0,30.06,South,172,8.0,10.0,30,-99.99,,,-99.99,-0.100000,,2013-06-06 04:13:00,
2013-06-05 22:22:00,64.0,35.0,30.06,South,176,8.0,10.0,34,-99.99,,,-99.99,-0.200000,,2013-06-06 04:22:00,
2013-06-05 22:33:00,64.0,35.0,30.06,South,179,7.0,10.0,33,-99.99,,,-99.99,-0.100000,,2013-06-06 04:33:00,
2013-06-05 22:42:00,64.0,34.0,30.07,South,174,7.0,9.0,32,-99.99,,,-99.99,-0.100000,,2013-06-06 04:42:00,
2013-06-05 22:52:00,63.0,35.0,30.07,South,175,9.0,13.0,35,-99.99,,,-99.99,0.000000,,2013-06-06 04:52:00,
2013-06-05 23:02:00,63.0,33.0,30.07,South,189,7.0,9.0,32,-99.99,,,-99.99,-0.100000,,2013-06-06 05:02:00,
2013-06-05 23:12:00,63.0,33.0,30.07,South,176,7.0,9.0,32,-99.99,,,-99.99,-0.100000,,2013-06-06 05:12:00,
2013-06-05 23:22:00,63.0,33.0,30.07,South,179,7.0,9.0,33,-99.99,,,-99.99,0.000000,,2013-06-06 05:22:00,
2013-06-05 23:32:00,63.0,33.0,30.06,South,180,8.0,10.0,32,-99.99,,,-99.99,-0.100000,,2013-06-06 05:32:00,
2013-06-05 23:41:00,62.0,33.0,30.07,SSE,165,8.0,11.0,33,-99.99,,,-99.99,0.000000,,2013-06-06 05:41:00,
2013-06-05 23:52:00,60.0,34.0,30.07,South,179,6.0,10.0,38,-99.99,,,-99.99,-0.300000,,2013-06-06 05:52:00,